createdAt,value
2022-10-01T00:02:00.839Z,100318.25
2022-10-01T00:04:28.184Z,100322.06
2022-10-01T00:06:54.662Z,100314.53
2022-10-01T00:09:21.156Z,100296.81
2022-10-01T00:11:47.597Z,100290.31
2022-10-01T00:14:13.983Z,100288.09
2022-10-01T00:16:40.495Z,100282.78
2022-10-01T00:19:06.980Z,100288.09
2022-10-01T00:21:33.680Z,100284.69
2022-10-01T00:24:04.429Z,100274.47
2022-10-01T00:26:34.052Z,100261.63
2022-10-01T00:29:04.386Z,100258.22
2022-10-01T00:31:31.107Z,100254.09
2022-10-01T00:34:00.265Z,100249.22
2022-10-01T00:36:27.224Z,100243.91
2022-10-01T00:38:53.637Z,100231.03
2022-10-01T00:41:20.145Z,100197.66
2022-10-01T00:43:57.306Z,100191.59
2022-10-01T00:46:29.418Z,100187.03
2022-10-01T00:49:04.106Z,100173.44
2022-10-01T00:51:34.195Z,100170.78
2022-10-01T00:54:08.345Z,100160.88
2022-10-01T00:56:34.939Z,100148.03
2022-10-01T00:59:02.384Z,100154.06
2022-10-01T01:01:28.875Z,100157.47
2022-10-01T01:03:56.434Z,100153.63
2022-10-01T01:06:22.867Z,100146.38
2022-10-01T01:08:54.973Z,100145.19
2022-10-01T01:11:53.608Z,100145.94
2022-10-01T01:14:31.988Z,100149.34
2022-10-01T01:17:08.534Z,100155.38
2022-10-01T01:20:05.247Z,100139.44
2022-10-01T01:22:37.360Z,100125.69
2022-10-01T01:25:17.516Z,100114.31
2022-10-01T01:28:31.664Z,100113.56
2022-10-01T01:31:07.888Z,100088.91
2022-10-01T01:33:37.234Z,100086.97
2022-10-01T01:36:13.715Z,100076.34
2022-10-01T01:38:46.359Z,100065.25
2022-10-01T01:41:15.494Z,100069.38
2022-10-01T01:43:46.872Z,100050.75
2022-10-01T01:46:17.633Z,100062.59
2022-10-01T01:48:47.455Z,100058.75
2022-10-01T01:51:38.316Z,100046.91
2022-10-01T01:54:04.867Z,100054.91
2022-10-01T01:56:31.986Z,100051.78
2022-10-01T01:59:00.456Z,100055.94
2022-10-01T02:01:43.179Z,100044.56
2022-10-01T02:04:19.634Z,100054.03
2022-10-01T02:07:03.990Z,100059.34
2022-10-01T02:09:37.769Z,100064.22
2022-10-01T02:12:30.210Z,100062.28
2022-10-01T02:15:03.120Z,100065.69
2022-10-01T02:17:57.421Z,100066.41
2022-10-01T02:20:30.978Z,100061.38
2022-10-01T02:23:03.578Z,100054.88
2022-10-01T02:25:37.407Z,100054.88
2022-10-01T02:28:10.896Z,100052.22
2022-10-01T02:30:39.365Z,100062.41
2022-10-01T02:33:09.659Z,100049.09
2022-10-01T02:35:37.743Z,100055.16
2022-10-01T02:38:07.434Z,100059.28
2022-10-01T02:40:37.909Z,100054.72
2022-10-01T02:43:10.890Z,100039.47
2022-10-01T02:45:40.788Z,100050.41
2022-10-01T02:48:11.744Z,100053.34
2022-10-01T02:50:48.291Z,100033.25
2022-10-01T02:53:42.238Z,100045.38
2022-10-01T02:56:11.080Z,100044.91
2022-10-01T02:58:37.559Z,100036.47
2022-10-01T03:01:03.950Z,100042.53
2022-10-01T03:03:32.333Z,100054.66
2022-10-01T03:05:58.758Z,100041.34
2022-10-01T03:08:25.219Z,100052.97
2022-10-01T03:10:51.597Z,100039.97
2022-10-01T03:13:19.669Z,100029.31
2022-10-01T03:15:46.876Z,100017.47
2022-10-01T03:18:13.291Z,100013.19
2022-10-01T03:20:39.689Z,100008.13
2022-10-01T03:23:06.099Z,100014.94
2022-10-01T03:25:32.470Z,100014.47
2022-10-01T03:27:58.884Z,100001.44
2022-10-01T03:30:26.833Z,100008.25
2022-10-01T03:32:53.328Z,100007.06
2022-10-01T03:35:20.259Z,99995.97
2022-10-01T03:37:47.602Z,99998.16
2022-10-01T03:40:14.040Z,100006.44
2022-10-01T03:42:40.480Z,99997.97
2022-10-01T03:45:07.286Z,99997.53
2022-10-01T03:47:34.093Z,99997.81
2022-10-01T03:50:00.466Z,100002.69
2022-10-01T03:52:26.904Z,100002.22
2022-10-01T03:54:53.310Z,100009.00
2022-10-01T03:57:19.744Z,99988.44
2022-10-01T03:59:46.355Z,100002.78
2022-10-01T04:02:12.871Z,100002.78
2022-10-01T04:04:39.345Z,100010.59
2022-10-01T04:07:05.761Z,100005.25
2022-10-01T04:09:32.167Z,100011.59
2022-10-01T04:11:59.108Z,100008.44
2022-10-01T04:14:25.994Z,100012.59
2022-10-01T04:16:52.786Z,100014.06
2022-10-01T04:19:20.052Z,100011.69
2022-10-01T04:21:46.460Z,100016.53
2022-10-01T04:24:12.929Z,100022.59
2022-10-01T04:26:39.345Z,100023.63
2022-10-01T04:29:06.001Z,100027.00
2022-10-01T04:31:35.019Z,100045.94
2022-10-01T04:34:01.865Z,100042.06
2022-10-01T04:36:28.484Z,100044.28
2022-10-01T04:39:00.725Z,100041.91
2022-10-01T04:41:30.566Z,100047.22
2022-10-01T04:43:59.228Z,100056.69
2022-10-01T04:46:25.793Z,100060.38
2022-10-01T04:48:52.236Z,100069.38
2022-10-01T04:51:18.669Z,100071.56
2022-10-01T04:53:45.056Z,100083.53
2022-10-01T04:56:11.481Z,100080.41
2022-10-01T04:58:38.435Z,100077.28
2022-10-01T05:01:05.014Z,100078.00
2022-10-01T05:03:31.629Z,100083.63
2022-10-01T05:05:58.224Z,100083.44
2022-10-01T05:08:24.614Z,100095.56
2022-10-01T05:10:51.025Z,100095.81
2022-10-01T05:13:17.428Z,100099.94
2022-10-01T05:15:44.690Z,100103.34
2022-10-01T05:18:11.151Z,100109.13
2022-10-01T05:20:38.286Z,100111.34
2022-10-01T05:23:04.849Z,100118.59
2022-10-01T05:25:31.295Z,100110.59
2022-10-01T05:28:05.174Z,100125.69
2022-10-01T05:30:32.670Z,100124.50
2022-10-01T05:33:01.223Z,100130.56
2022-10-01T05:35:28.195Z,100139.56
2022-10-01T05:37:56.403Z,100142.22
2022-10-01T05:40:25.649Z,100146.81
2022-10-01T05:42:52.053Z,100146.81
2022-10-01T05:45:20.916Z,100154.06
2022-10-01T05:47:47.759Z,100158.38
2022-10-01T05:50:14.525Z,100167.75
2022-10-01T05:52:48.405Z,100162.41
2022-10-01T05:55:15.227Z,100163.16
2022-10-01T05:57:41.603Z,100167.00
2022-10-01T06:00:08.427Z,100175.50
2022-10-01T06:02:38.471Z,100177.13
2022-10-01T06:05:05.229Z,100174.19
2022-10-01T06:07:31.959Z,100179.53
2022-10-01T06:09:58.365Z,100183.66
2022-10-01T06:12:25.106Z,100187.06
2022-10-01T06:14:51.486Z,100179.34
2022-10-01T06:17:17.873Z,100183.72
2022-10-01T06:19:44.243Z,100188.88
2022-10-01T06:22:10.635Z,100191.38
2022-10-01T06:24:37.272Z,100187.34
2022-10-01T06:27:03.781Z,100187.91
2022-10-01T06:29:30.145Z,100186.53
2022-10-01T06:31:57.011Z,100188.56
2022-10-01T06:34:23.450Z,100188.38
2022-10-01T06:36:49.826Z,100191.16
2022-10-01T06:39:17.027Z,100191.09
2022-10-01T06:41:43.502Z,100196.56
2022-10-01T06:44:14.994Z,100198.34
2022-10-01T06:46:41.389Z,100193.59
2022-10-01T06:49:07.935Z,100185.41
2022-10-01T06:51:52.787Z,100193.63
2022-10-01T06:54:19.176Z,100201.72
2022-10-01T06:56:45.571Z,100208.31
2022-10-01T06:59:12.040Z,100206.47
2022-10-01T07:01:38.887Z,100205.34
2022-10-01T07:04:05.600Z,100204.69
2022-10-01T07:06:32.508Z,100207.97
2022-10-01T07:08:58.891Z,100210.06
2022-10-01T07:11:27.118Z,100219.44
2022-10-01T07:13:54.686Z,100225.88
2022-10-01T07:16:21.409Z,100225.28
2022-10-01T07:18:47.833Z,100240.84
2022-10-01T07:21:14.215Z,100236.53
2022-10-01T07:23:40.626Z,100255.25
2022-10-01T07:26:09.054Z,100251.91
2022-10-01T07:28:35.485Z,100255.09
2022-10-01T07:31:12.007Z,100259.50
2022-10-01T07:33:39.606Z,100268.19
2022-10-01T07:36:08.569Z,100265.59
2022-10-01T07:38:35.351Z,100264.66
2022-10-01T07:41:03.338Z,100273.47
2022-10-01T07:43:31.726Z,100267.47
2022-10-01T07:46:00.020Z,100268.81
2022-10-01T07:48:27.424Z,100279.03
2022-10-01T07:50:53.873Z,100271.53
2022-10-01T07:53:20.408Z,100271.81
2022-10-01T07:55:46.858Z,100275.75
2022-10-01T07:58:13.497Z,100284.88
2022-10-01T08:00:40.166Z,100279.13
2022-10-01T08:03:06.797Z,100292.75
2022-10-01T08:05:35.721Z,100294.63
2022-10-01T08:08:05.458Z,100295.22
2022-10-01T08:10:36.495Z,100296.06
2022-10-01T08:13:15.103Z,100300.13
2022-10-01T08:15:42.778Z,100298.59
2022-10-01T08:18:09.868Z,100302.41
2022-10-01T08:20:36.280Z,100301.41
2022-10-01T08:23:05.094Z,100306.50
2022-10-01T08:25:31.594Z,100314.78
2022-10-01T08:27:58.062Z,100322.81
2022-10-01T08:30:25.378Z,100317.13
2022-10-01T08:32:56.165Z,100320.75
2022-10-01T08:35:24.092Z,100322.44
2022-10-01T08:37:51.000Z,100323.91
2022-10-01T08:40:20.324Z,100324.44
2022-10-01T08:42:59.911Z,100328.97
2022-10-01T08:45:47.694Z,100325.66
2022-10-01T08:48:29.325Z,100334.28
2022-10-01T08:51:04.744Z,100342.44
2022-10-01T08:53:40.759Z,100345.28
2022-10-01T08:56:24.147Z,100351.22
2022-10-01T08:58:58.279Z,100352.53
2022-10-01T09:01:26.322Z,100356.91
2022-10-01T09:03:53.770Z,100359.19
2022-10-01T09:06:25.081Z,100357.56
2022-10-01T09:08:57.158Z,100365.50
2022-10-01T09:11:47.945Z,100366.06
2022-10-01T09:14:30.656Z,100367.41
2022-10-01T09:17:19.171Z,100367.72
2022-10-01T09:20:22.903Z,100367.53
2022-10-01T09:23:04.319Z,100377.06
2022-10-01T09:25:31.549Z,100371.50
2022-10-01T09:28:11.184Z,100384.50
2022-10-01T09:30:43.516Z,100381.81
2022-10-01T09:33:17.251Z,100383.56
2022-10-01T09:36:04.608Z,100376.97
2022-10-01T09:38:48.857Z,100388.88
2022-10-01T09:41:16.038Z,100388.13
2022-10-01T09:43:44.662Z,100392.72
2022-10-01T09:46:17.083Z,100393.41
2022-10-01T09:49:11.204Z,100400.00
2022-10-01T09:51:45.243Z,100404.91
2022-10-01T09:54:23.763Z,100405.97
2022-10-01T09:57:00.588Z,100396.47
2022-10-01T09:59:34.416Z,100403.34
2022-10-01T10:02:03.899Z,100407.53
2022-10-01T10:04:30.969Z,100413.13
2022-10-01T10:07:05.524Z,100413.53
2022-10-01T10:09:35.072Z,100436.44
2022-10-01T10:12:02.221Z,100438.28
2022-10-01T10:14:32.167Z,100435.66
2022-10-01T10:17:05.337Z,100450.50
2022-10-01T10:19:33.174Z,100446.94
2022-10-01T10:22:23.104Z,100456.81
2022-10-01T10:24:49.608Z,100456.88
2022-10-01T10:27:26.753Z,100458.34
2022-10-01T10:30:07.008Z,100461.97
2022-10-01T10:32:33.538Z,100468.94
2022-10-01T10:35:05.432Z,100472.38
2022-10-01T10:37:36.873Z,100486.84
2022-10-01T10:40:08.215Z,100483.72
2022-10-01T10:42:38.714Z,100492.78
2022-10-01T10:45:17.358Z,100496.69
2022-10-01T10:47:46.728Z,100498.41
2022-10-01T10:50:29.809Z,100493.84
2022-10-01T10:52:57.337Z,100501.16
2022-10-01T10:55:28.810Z,100502.88
2022-10-01T10:57:57.709Z,100508.53
2022-10-01T11:00:26.135Z,100507.88
2022-10-01T11:03:04.177Z,100516.66
2022-10-01T11:05:32.976Z,100538.25
2022-10-01T11:08:03.560Z,100538.44
2022-10-01T11:10:32.731Z,100530.91
2022-10-01T11:13:20.177Z,100536.56
2022-10-01T11:16:19.204Z,100534.41
2022-10-01T11:18:58.369Z,100548.44
2022-10-01T11:21:41.635Z,100542.34
2022-10-01T11:24:49.891Z,100542.34
2022-10-01T11:27:27.185Z,100560.66
2022-10-01T11:30:10.595Z,100571.16
2022-10-01T11:32:48.658Z,100584.22
2022-10-01T11:35:25.553Z,100592.88
2022-10-01T11:38:13.240Z,100583.34
2022-10-01T11:40:42.850Z,100584.06
2022-10-01T11:43:31.362Z,100585.16
2022-10-01T11:46:08.482Z,100592.34
2022-10-01T11:48:43.141Z,100600.34
2022-10-01T11:51:16.277Z,100597.25
2022-10-01T11:54:00.492Z,100614.25
2022-10-01T11:56:49.283Z,100610.47
2022-10-01T11:59:34.816Z,100598.13
2022-10-01T12:02:19.954Z,100610.13
2022-10-01T12:04:59.387Z,100620.47
2022-10-01T12:07:37.843Z,100623.31
2022-10-01T12:10:21.275Z,100624.16
2022-10-01T12:13:04.289Z,100644.97
2022-10-01T12:15:44.774Z,100651.72
2022-10-01T12:18:18.570Z,100652.47
2022-10-01T12:20:50.340Z,100644.19
2022-10-01T12:23:20.098Z,100651.88
2022-10-01T12:26:04.270Z,100650.63
2022-10-01T12:28:42.464Z,100649.91
2022-10-01T12:31:24.997Z,100654.59
2022-10-01T12:34:22.272Z,100651.72
2022-10-01T12:36:59.222Z,100662.31
2022-10-01T12:39:56.920Z,100649.75
2022-10-01T12:43:04.262Z,100656.94
2022-10-01T12:45:46.266Z,100665.34
2022-10-01T12:48:44.657Z,100679.28
2022-10-01T12:51:29.759Z,100675.00
2022-10-01T12:54:05.245Z,100696.03
2022-10-01T12:56:49.651Z,100704.91
2022-10-01T12:59:37.388Z,100703.34
2022-10-01T13:02:07.800Z,100702.19
2022-10-01T13:04:56.603Z,100704.00
2022-10-01T13:07:50.488Z,100691.25
2022-10-01T13:10:29.661Z,100693.59
2022-10-01T13:13:01.826Z,100689.28
2022-10-01T13:15:34.884Z,100697.63
2022-10-01T13:18:23.167Z,100712.78
2022-10-01T13:21:05.643Z,100716.69
2022-10-01T13:23:43.697Z,100720.59
2022-10-01T13:26:22.829Z,100723.50
2022-10-01T13:28:54.093Z,100725.97
2022-10-01T13:31:35.017Z,100734.78
2022-10-01T13:34:02.668Z,100739.44
2022-10-01T13:36:35.611Z,100729.19
2022-10-01T13:39:02.194Z,100743.09
2022-10-01T13:41:32.131Z,100749.44
2022-10-01T13:44:02.558Z,100762.59
2022-10-01T13:46:31.647Z,100761.22
2022-10-01T13:49:24.095Z,100760.72
2022-10-01T13:51:52.517Z,100767.16
2022-10-01T13:54:39.812Z,100766.78
2022-10-01T13:57:36.167Z,100766.25
2022-10-01T14:00:11.597Z,100776.00
2022-10-01T14:03:00.068Z,100785.41
2022-10-01T14:05:36.867Z,100780.91
2022-10-01T14:08:29.073Z,100787.53
2022-10-01T14:11:16.720Z,100785.66
2022-10-01T14:14:05.855Z,100789.34
2022-10-01T14:16:39.808Z,100792.56
2022-10-01T14:19:07.644Z,100812.75
2022-10-01T14:22:01.867Z,100805.41
2022-10-01T14:24:55.528Z,100806.81
2022-10-01T14:27:52.946Z,100802.19
2022-10-01T14:30:39.539Z,100815.31
2022-10-01T14:33:08.879Z,100818.25
2022-10-01T14:35:42.732Z,100815.03
2022-10-01T14:38:20.543Z,100835.06
2022-10-01T14:40:49.103Z,100833.44
2022-10-01T14:43:20.088Z,100828.16
2022-10-01T14:46:00.288Z,100831.13
2022-10-01T14:48:31.796Z,100836.91
2022-10-01T14:51:00.637Z,100835.88
2022-10-01T14:53:29.784Z,100839.78
2022-10-01T14:56:01.064Z,100849.22
2022-10-01T14:58:31.600Z,100834.75
2022-10-01T15:00:59.124Z,100847.59
2022-10-01T15:03:25.622Z,100850.81
2022-10-01T15:06:03.615Z,100857.00
2022-10-01T15:08:42.301Z,100876.59
2022-10-01T15:11:19.543Z,100861.22
2022-10-01T15:13:48.641Z,100874.19
2022-10-01T15:16:21.030Z,100874.41
2022-10-01T15:18:54.826Z,100875.03
2022-10-01T15:21:28.565Z,100875.91
2022-10-01T15:23:55.217Z,100872.44
2022-10-01T15:26:27.341Z,100879.72
2022-10-01T15:29:16.488Z,100872.13
2022-10-01T15:31:45.224Z,100878.47
2022-10-01T15:34:15.902Z,100882.09
2022-10-01T15:36:43.849Z,100890.34
2022-10-01T15:39:22.310Z,100890.00
2022-10-01T15:41:54.286Z,100889.47
2022-10-01T15:44:46.225Z,100899.75
2022-10-01T15:47:27.527Z,100910.47
2022-10-01T15:50:12.280Z,100914.50
2022-10-01T15:52:51.479Z,100917.34
2022-10-01T15:55:22.160Z,100917.97
2022-10-01T15:58:03.320Z,100920.13
2022-10-01T16:00:34.570Z,100928.16
2022-10-01T16:03:02.412Z,100924.28
2022-10-01T16:05:37.711Z,100932.06
2022-10-01T16:08:05.198Z,100942.72
2022-10-01T16:10:37.699Z,100942.81
2022-10-01T16:13:26.934Z,100948.28
2022-10-01T16:16:30.234Z,100952.13
2022-10-01T16:19:00.020Z,100948.81
2022-10-01T16:21:26.829Z,100953.63
2022-10-01T16:23:55.767Z,100965.25
2022-10-01T16:26:29.058Z,100957.69
2022-10-01T16:28:57.930Z,100969.63
2022-10-01T16:31:29.050Z,100970.53
2022-10-01T16:33:55.470Z,100972.38
2022-10-01T16:36:24.304Z,100967.66
2022-10-01T16:38:51.183Z,100980.53
2022-10-01T16:41:23.385Z,100970.28
2022-10-01T16:43:51.639Z,100979.25
2022-10-01T16:46:18.147Z,100985.25
2022-10-01T16:48:47.689Z,100986.91
2022-10-01T16:51:14.089Z,100987.53
2022-10-01T16:53:42.755Z,100995.03
2022-10-01T16:56:10.758Z,100996.69
2022-10-01T16:58:40.812Z,101007.84
2022-10-01T17:01:08.926Z,101010.72
2022-10-01T17:03:36.297Z,101014.59
2022-10-01T17:06:03.124Z,101017.91
2022-10-01T17:08:29.592Z,101026.84
2022-10-01T17:10:59.812Z,101022.13
2022-10-01T17:13:32.548Z,101031.25
2022-10-01T17:15:59.979Z,101025.03
2022-10-01T17:18:26.400Z,101028.06
2022-10-01T17:20:52.771Z,101030.34
2022-10-01T17:23:22.212Z,101034.84
2022-10-01T17:25:49.516Z,101032.06
2022-10-01T17:28:18.756Z,101036.28
2022-10-01T17:30:47.909Z,101037.63
2022-10-01T17:33:15.676Z,101035.28
2022-10-01T17:35:51.367Z,101035.63
2022-10-01T17:38:19.072Z,101045.91
2022-10-01T17:40:45.528Z,101048.75
2022-10-01T17:43:13.695Z,101055.16
2022-10-01T17:45:40.438Z,101066.63
2022-10-01T17:48:07.054Z,101065.03
2022-10-01T17:50:33.496Z,101080.47
2022-10-01T17:53:00.695Z,101081.81
2022-10-01T17:55:27.816Z,101085.84
2022-10-01T17:57:54.248Z,101084.25
2022-10-01T18:00:20.754Z,101091.34
2022-10-01T18:02:47.222Z,101095.66
2022-10-01T18:05:15.015Z,101089.44
2022-10-01T18:07:42.401Z,101100.25
2022-10-01T18:10:11.719Z,101101.31
2022-10-01T18:12:39.786Z,101109.47
2022-10-01T18:15:07.253Z,101117.94
2022-10-01T18:17:36.308Z,101114.22
2022-10-01T18:20:05.937Z,101123.13
2022-10-01T18:22:32.606Z,101119.56
2022-10-01T18:24:59.060Z,101127.00
2022-10-01T18:27:25.619Z,101133.22
2022-10-01T18:29:52.041Z,101132.63
2022-10-01T18:32:27.332Z,101140.03
2022-10-01T18:34:58.969Z,101151.28
2022-10-01T18:37:40.013Z,101145.66
2022-10-01T18:40:18.108Z,101148.91
2022-10-01T18:43:02.857Z,101158.69
2022-10-01T18:46:26.523Z,101162.22
2022-10-01T18:49:07.184Z,101170.09
2022-10-01T18:51:43.210Z,101166.06
2022-10-01T18:54:33.494Z,101166.66
2022-10-01T18:57:30.966Z,101166.78
2022-10-01T19:00:08.805Z,101179.09
2022-10-01T19:02:54.037Z,101170.47
2022-10-01T19:05:57.819Z,101180.84
2022-10-01T19:08:49.322Z,101180.53
2022-10-01T19:11:31.382Z,101190.91
2022-10-01T19:14:33.664Z,101189.09
2022-10-01T19:17:12.042Z,101189.84
2022-10-01T19:19:57.332Z,101196.81
2022-10-01T19:22:58.697Z,101197.97
2022-10-01T19:25:43.422Z,101197.66
2022-10-01T19:28:25.801Z,101193.25
2022-10-01T19:31:15.763Z,101202.72
2022-10-01T19:33:51.620Z,101199.31
2022-10-01T19:36:34.416Z,101202.72
2022-10-01T19:39:06.489Z,101203.00
2022-10-01T19:41:59.296Z,101214.00
2022-10-01T19:44:35.243Z,101212.50
2022-10-01T19:47:31.530Z,101213.69
2022-10-01T19:50:06.381Z,101217.25
2022-10-01T19:52:38.158Z,101221.97
2022-10-01T19:55:12.357Z,101223.47
2022-10-01T19:57:42.001Z,101223.88
2022-10-01T20:00:18.012Z,101224.00
2022-10-01T20:03:09.539Z,101227.13
2022-10-01T20:05:51.167Z,101232.16
2022-10-01T20:08:48.727Z,101236.75
2022-10-01T20:11:44.107Z,101241.44
2022-10-01T20:14:53.836Z,101239.22
2022-10-01T20:17:29.495Z,101254.91
2022-10-01T20:20:07.797Z,101257.25
2022-10-01T20:22:45.368Z,101261.81
2022-10-01T20:25:39.186Z,101260.78
2022-10-01T20:28:24.712Z,101260.78
2022-10-01T20:31:01.498Z,101262.38
2022-10-01T20:33:57.457Z,101260.91
2022-10-01T20:36:34.870Z,101264.00
2022-10-01T20:39:12.815Z,101268.28
2022-10-01T20:41:49.184Z,101263.81
2022-10-01T20:44:22.229Z,101268.53
2022-10-01T20:46:52.011Z,101276.22
2022-10-01T20:49:32.076Z,101278.88
2022-10-01T20:52:02.044Z,101277.09
2022-10-01T20:54:36.747Z,101285.50
2022-10-01T20:57:41.552Z,101276.47
2022-10-01T21:00:18.561Z,101276.88
2022-10-01T21:02:59.308Z,101289.91
2022-10-01T21:05:33.270Z,101286.06
2022-10-01T21:08:08.406Z,101288.41
2022-10-01T21:10:46.281Z,101290.00
2022-10-01T21:13:32.942Z,101290.44
2022-10-01T21:16:26.637Z,101293.13
2022-10-01T21:19:05.303Z,101290.44
2022-10-01T21:21:58.024Z,101291.63
2022-10-01T21:24:44.187Z,101294.72
2022-10-01T21:27:23.996Z,101294.72
2022-10-01T21:29:59.526Z,101291.41
2022-10-01T21:32:41.245Z,101291.09
2022-10-01T21:35:39.897Z,101295.38
2022-10-01T21:38:28.799Z,101299.97
2022-10-01T21:41:14.158Z,101292.41
2022-10-01T21:44:14.151Z,101292.50
2022-10-01T21:47:02.736Z,101296.34
2022-10-01T21:50:10.800Z,101293.38
2022-10-01T21:52:37.197Z,101289.66
2022-10-01T21:55:12.347Z,101294.56
2022-10-01T21:57:51.538Z,101296.78
2022-10-01T22:00:26.131Z,101298.84
2022-10-01T22:03:19.918Z,101295.84
2022-10-01T22:06:17.128Z,101301.94
2022-10-01T22:09:01.628Z,101312.91
2022-10-01T22:11:36.388Z,101313.66
2022-10-01T22:14:12.362Z,101313.66
2022-10-01T22:16:46.026Z,101306.25
2022-10-01T22:19:28.623Z,101309.66
2022-10-01T22:22:09.825Z,101328.22
2022-10-01T22:24:46.136Z,101325.13
2022-10-01T22:27:20.081Z,101324.38
2022-10-01T22:30:00.204Z,101328.41
2022-10-01T22:32:30.726Z,101332.91
2022-10-01T22:35:04.685Z,101326.72
2022-10-01T22:37:37.401Z,101326.16
2022-10-01T22:40:13.534Z,101334.78
2022-10-01T22:42:53.578Z,101355.16
2022-10-01T22:45:29.642Z,101358.03
2022-10-01T22:48:23.872Z,101356.03
2022-10-01T22:51:09.885Z,101364.47
2022-10-01T22:53:51.221Z,101366.91
2022-10-01T22:56:27.385Z,101360.28
2022-10-01T22:59:42.051Z,101355.69
2022-10-01T23:02:30.103Z,101353.13
2022-10-01T23:05:07.186Z,101353.13
2022-10-01T23:08:20.949Z,101340.09
2022-10-01T23:10:58.148Z,101346.06
2022-10-01T23:13:56.375Z,101357.66
2022-10-01T23:16:35.119Z,101344.63
2022-10-01T23:19:10.837Z,101356.78
2022-10-01T23:21:50.355Z,101363.72
2022-10-01T23:24:39.725Z,101360.63
2022-10-01T23:27:38.664Z,101363.09
2022-10-01T23:30:11.672Z,101364.00
2022-10-01T23:33:02.578Z,101366.78
2022-10-01T23:36:04.924Z,101372.97
2022-10-01T23:38:31.240Z,101379.94
2022-10-01T23:41:16.658Z,101380.34
2022-10-01T23:43:49.052Z,101370.56
2022-10-01T23:46:31.376Z,101384.31
2022-10-01T23:49:06.600Z,101393.63
2022-10-01T23:51:47.682Z,101378.34
2022-10-01T23:54:32.384Z,101379.09
2022-10-01T23:57:04.981Z,101392.88
2022-10-01T23:59:43.249Z,101387.94
